Time;durP1;ratioP1;P1;durP2;ratioP2;P2;SDS_P1;SDS_P2;PMS_P1;PMS_P2;Temp;Humidity;BMP_temperature;BMP_pressure;BME280_temperature;BME280_humidity;BME280_pressure;Samples;Min_cycle;Max_cycle;Signal;HPM_P1;HPM_P2
2021/11/09 00:00:27;;;;;;;25.97;7.17;;;;;;;-145.69;100.00;73607.78;5074230;28;20332;-77
2021/11/09 00:02:57;;;;;;;35.20;7.80;;;;;;;-145.69;100.00;73577.91;5073899;28;20222;-78
2021/11/09 00:05:26;;;;;;;31.93;7.90;;;;;;;-145.69;100.00;73581.88;5074476;28;20199;-77
2021/11/09 00:07:55;;;;;;;32.30;7.50;;;;;;;-145.69;100.00;73573.94;5074372;28;20203;-77
2021/11/09 00:10:23;;;;;;;36.77;7.97;;;;;;;-145.69;100.00;73575.91;5074487;28;20198;-78
2021/11/09 00:12:52;;;;;;;31.03;8.00;;;;;;;-145.69;100.00;73571.94;5074260;28;20555;-77
2021/11/09 00:15:21;;;;;;;32.80;7.87;;;;;;;-145.69;100.00;73565.97;5074020;28;20202;-78
2021/11/09 00:17:50;;;;;;;31.57;8.17;;;;;;;-145.69;100.00;73563.97;5073980;28;20612;-78
2021/11/09 00:20:19;;;;;;;23.13;7.57;;;;;;;-145.69;100.00;73565.97;5073990;28;20206;-78
2021/11/09 00:22:47;;;;;;;34.13;8.10;;;;;;;-145.69;100.00;73552.03;5073088;28;20226;-78
2021/11/09 00:25:14;;;;;;;26.53;7.47;;;;;;;-145.69;100.00;73569.94;5073911;28;20203;-78
2021/11/09 00:27:41;;;;;;;35.23;7.73;;;;;;;-145.69;100.00;73585.88;5073878;28;20195;-78
2021/11/09 00:30:11;;;;;;;39.23;8.37;;;;;;;-145.69;100.00;73599.81;5074138;28;20206;-78
2021/11/09 00:32:38;;;;;;;33.63;8.13;;;;;;;-145.69;100.00;73597.81;5074014;28;20604;-78
2021/11/09 00:35:06;;;;;;;30.80;7.50;;;;;;;-145.69;100.00;73597.81;5073775;28;20233;-78
2021/11/09 00:37:33;;;;;;;42.30;8.40;;;;;;;-145.69;100.00;73569.94;5074061;28;20207;-78
2021/11/09 00:39:59;;;;;;;33.77;7.87;;;;;;;-145.69;100.00;73554.00;5073769;28;20194;-77
2021/11/09 00:42:26;;;;;;;31.73;8.70;;;;;;;-145.69;100.00;73540.06;5073629;28;20297;-77
2021/11/09 00:44:53;;;;;;;33.53;8.53;;;;;;;-145.69;100.00;73560.00;5073798;28;20203;-77
2021/11/09 00:47:21;;;;;;;43.03;9.07;;;;;;;-145.69;100.00;73548.03;5073790;28;20221;-77
2021/11/09 00:49:47;;;;;;;33.50;8.20;;;;;;;-145.69;100.00;73563.97;5074077;28;20199;-78
2021/11/09 00:52:14;;;;;;;25.73;7.57;;;;;;;-145.69;100.00;73595.81;5073640;28;20586;-77
2021/11/09 00:54:40;;;;;;;33.73;8.33;;;;;;;-145.69;100.00;73595.81;5073211;28;20233;-77
2021/11/09 00:57:07;;;;;;;29.33;6.83;;;;;;;-145.69;100.00;73595.81;5073403;28;20205;-77
2021/11/09 00:59:34;;;;;;;30.53;7.93;;;;;;;-145.69;100.00;73617.72;5073664;28;20199;-78
2021/11/09 01:02:03;;;;;;;27.57;7.43;;;;;;;-145.69;100.00;73615.72;5073439;28;20195;-77
2021/11/09 01:04:33;;;;;;;30.17;6.63;;;;;;;-145.69;100.00;73607.78;5073232;28;20701;-78
2021/11/09 01:07:01;;;;;;;27.13;7.47;;;;;;;-145.69;100.00;73595.81;5073525;28;20268;-77
2021/11/09 01:09:28;;;;;;;25.87;7.13;;;;;;;-145.69;100.00;73613.75;5073063;28;20203;-77
2021/11/09 01:11:57;;;;;;;28.77;6.67;;;;;;;-145.69;100.00;73625.69;5073199;28;20234;-77
2021/11/09 01:14:25;;;;;;;30.90;7.30;;;;;;;-145.69;100.00;73641.63;5072744;28;20194;-77
2021/11/09 01:16:52;;;;;;;21.23;6.97;;;;;;;-145.69;100.00;73625.69;5073309;28;20608;-77
2021/11/09 01:19:20;;;;;;;30.80;6.30;;;;;;;-145.69;100.00;73629.66;5073241;28;20195;-78
2021/11/09 01:21:48;;;;;;;29.73;7.33;;;;;;;-145.69;100.00;73611.75;5073205;28;20253;-77
2021/11/09 01:24:18;;;;;;;26.30;6.60;;;;;;;-145.69;100.00;73617.72;5072871;28;20321;-78
2021/11/09 01:26:51;;;;;;;26.37;6.53;;;;;;;-145.69;100.00;73641.63;5073441;28;20569;-77
2021/11/09 01:29:19;;;;;;;19.87;5.47;;;;;;;-145.69;100.00;73637.63;5073177;28;20206;-78
2021/11/09 01:31:46;;;;;;;34.50;7.00;;;;;;;-145.69;100.00;73619.72;5073062;28;20207;-77
2021/11/09 01:34:15;;;;;;;31.47;7.17;;;;;;;-145.69;100.00;73603.78;5072582;28;20653;-78
2021/11/09 01:36:42;;;;;;;26.93;7.83;;;;;;;-145.69;100.00;73577.91;5072905;28;20256;-77
2021/11/09 01:39:12;;;;;;;31.70;7.13;;;;;;;-145.69;100.00;73587.88;5073265;28;20206;-78
2021/11/09 01:41:39;;;;;;;28.87;6.40;;;;;;;-145.69;100.00;73554.00;5073404;28;20198;-77
2021/11/09 01:44:06;;;;;;;29.47;7.53;;;;;;;-145.69;100.00;73558.00;5073044;28;20276;-77
2021/11/09 01:46:33;;;;;;;30.63;6.73;;;;;;;-145.69;100.00;73536.09;5072917;28;20224;-77
2021/11/09 01:49:01;;;;;;;35.83;7.50;;;;;;;-145.69;100.00;73528.13;5072944;28;20356;-78
2021/11/09 01:51:29;;;;;;;20.97;7.13;;;;;;;-145.69;100.00;73486.31;5072942;28;20202;-77
2021/11/09 01:53:56;;;;;;;26.40;7.27;;;;;;;-145.69;100.00;73464.44;5072714;28;20241;-77
2021/11/09 01:56:29;;;;;;;36.40;8.60;;;;;;;-145.69;100.00;73454.47;5072757;28;20203;-77
2021/11/09 01:58:59;;;;;;;23.33;7.57;;;;;;;-145.69;100.00;73426.59;5072927;28;20593;-77
2021/11/09 02:01:27;;;;;;;28.40;7.33;;;;;;;-145.69;100.00;73404.69;5072491;28;20696;-77
2021/11/09 02:03:59;;;;;;;22.60;6.80;;;;;;;-145.69;100.00;73404.69;5072651;28;20232;-77
2021/11/09 02:06:26;;;;;;;30.53;7.80;;;;;;;-145.69;100.00;73414.66;5073104;28;20198;-77
2021/11/09 02:08:58;;;;;;;26.57;6.27;;;;;;;-145.69;100.00;73400.72;5072753;28;20199;-77
2021/11/09 02:11:30;;;;;;;24.40;5.50;;;;;;;-145.69;100.00;73408.69;5072796;28;20198;-77
2021/11/09 02:13:57;;;;;;;20.87;5.23;;;;;;;-145.69;100.00;73414.66;5072721;28;20290;-77
2021/11/09 02:16:25;;;;;;;18.27;5.83;;;;;;;-145.69;100.00;73390.75;5072571;28;20203;-77
2021/11/09 02:18:51;;;;;;;21.80;5.93;;;;;;;-145.69;100.00;73406.69;5072645;28;20203;-77
2021/11/09 02:21:19;;;;;;;26.83;6.07;;;;;;;-145.69;100.00;73404.69;5072615;28;20198;-78
2021/11/09 02:23:47;;;;;;;22.80;5.43;;;;;;;-145.69;100.00;73386.78;5072545;28;20321;-77
2021/11/09 02:26:17;;;;;;;15.87;5.07;;;;;;;-145.69;100.00;73400.72;5072507;28;20203;-77
2021/11/09 02:28:48;;;;;;;18.10;4.70;;;;;;;-145.69;100.00;73416.66;5072657;28;20244;-77
2021/11/09 02:31:16;;;;;;;15.83;4.27;;;;;;;-145.69;100.00;73388.78;5072535;28;20210;-77
2021/11/09 02:33:43;;;;;;;20.33;4.97;;;;;;;-145.69;100.00;73396.72;5072575;28;20256;-77
2021/11/09 02:36:10;;;;;;;21.93;5.10;;;;;;;-145.69;100.00;73392.75;5072538;28;20210;-77
2021/11/09 02:38:38;;;;;;;14.63;4.63;;;;;;;-145.69;100.00;73420.63;5072517;28;20205;-77
2021/11/09 02:41:05;;;;;;;20.37;4.73;;;;;;;-145.69;100.00;73412.66;5072222;28;20199;-78
2021/11/09 02:43:32;;;;;;;17.27;4.50;;;;;;;-145.69;100.00;73390.75;5072357;28;20555;-77
2021/11/09 02:46:26;;;;;;;14.97;4.57;;;;;;;-145.69;100.00;73428.59;5075211;28;20294;-77
2021/11/09 02:48:57;;;;;;;16.20;5.13;;;;;;;-145.69;100.00;73436.56;5075878;28;20202;-78
2021/11/09 02:51:31;;;;;;;12.77;4.30;;;;;;;-145.69;100.00;73460.44;5075751;28;20252;-78
2021/11/09 02:54:04;;;;;;;20.20;5.77;;;;;;;-145.69;100.00;73446.50;5075991;28;20647;-78
2021/11/09 02:56:36;;;;;;;18.00;5.40;;;;;;;-145.69;100.00;73440.53;5075926;28;20585;-77
2021/11/09 02:59:07;;;;;;;16.10;5.70;;;;;;;-145.69;100.00;73440.53;5075766;28;20628;-77
2021/11/09 03:01:44;;;;;;;19.20;5.60;;;;;;;-145.69;100.00;73444.50;5075824;28;20199;-77
2021/11/09 03:04:20;;;;;;;15.37;5.20;;;;;;;-145.69;100.00;73466.41;5075464;28;20233;-77
2021/11/09 03:06:52;;;;;;;18.53;5.93;;;;;;;-145.69;100.00;73462.44;5075312;28;20205;-76
2021/11/09 03:09:23;;;;;;;26.23;7.25;;;;;;;-145.69;100.00;73458.44;5074962;28;20445;-77
2021/11/09 03:11:54;;;;;;;17.40;6.23;;;;;;;-145.69;100.00;73468.41;5075583;28;20205;-77
2021/11/09 03:14:25;;;;;;;13.13;5.43;;;;;;;-145.69;100.00;73466.41;5075443;28;20689;-77
2021/11/09 03:16:53;;;;;;;18.00;5.40;;;;;;;-145.69;100.00;73480.34;5075117;28;20207;-77
2021/11/09 03:19:29;;;;;;;22.03;5.47;;;;;;;-145.69;100.00;73500.25;5074519;28;20657;-78
2021/11/09 03:44:21;;;;;;;23.97;6.00;;;;;;;-145.69;100.00;73504.25;5074637;28;20241;-77
2021/11/09 03:46:51;;;;;;;24.33;6.77;;;;;;;-145.69;100.00;73494.28;5074754;28;20194;-77
2021/11/09 03:49:20;;;;;;;27.67;7.47;;;;;;;-145.69;100.00;73496.28;5074810;28;20199;-77
2021/11/09 03:51:48;;;;;;;27.23;7.00;;;;;;;-145.69;100.00;73488.31;5074662;28;20203;-77
2021/11/09 03:54:17;;;;;;;31.97;7.40;;;;;;;-145.69;100.00;73466.41;5074342;28;20238;-77
2021/11/09 03:56:48;;;;;;;21.50;6.90;;;;;;;-145.69;100.00;73472.38;5074315;28;20711;-77
2021/11/09 03:59:18;;;;;;;26.53;6.83;;;;;;;-145.69;100.00;73498.28;5074651;28;20199;-77
2021/11/09 04:02:00;;;;;;;29.27;7.03;;;;;;;-145.69;100.00;73486.31;5074349;28;20650;-77
2021/11/09 04:04:35;;;;;;;26.07;7.33;;;;;;;-145.69;100.00;73468.41;5074186;28;20313;-77
2021/11/09 04:07:06;;;;;;;27.40;7.97;;;;;;;-145.69;100.00;73450.50;5074493;28;20248;-77
2021/11/09 04:09:51;;;;;;;32.83;8.23;;;;;;;-145.69;100.00;73436.56;5074349;28;20199;-78
2021/11/09 04:12:35;;;;;;;31.53;8.90;;;;;;;-145.69;100.00;73404.69;5074647;28;20260;-76
2021/11/09 04:15:14;;;;;;;28.40;9.03;;;;;;;-145.69;100.00;73400.72;5074003;28;20194;-77
2021/11/09 04:17:57;;;;;;;41.00;9.70;;;;;;;-145.69;100.00;73398.72;5074319;28;20237;-76
2021/11/09 04:20:39;;;;;;;31.03;9.47;;;;;;;-145.69;100.00;73392.75;5074089;28;20202;-77
2021/11/09 04:28:50;;;;;;;38.03;9.47;;;;;;;-145.69;100.00;73388.78;5073625;28;20195;-77
2021/11/09 04:31:35;;;;;;;29.80;9.23;;;;;;;-145.69;100.00;73392.75;5073722;28;20198;-78
2021/11/09 04:34:31;;;;;;;29.70;9.03;;;;;;;-145.69;100.00;73380.81;5073794;28;20210;-77
2021/11/09 04:51:26;;;;;;;23.90;7.93;;;;;;;-145.69;100.00;73374.84;4988835;28;20199;-77
2021/11/09 05:02:37;;;;;;;23.03;8.40;;;;;;;-145.69;100.00;73372.84;5073628;28;20248;-77
2021/11/09 05:10:35;;;;;;;22.07;8.10;;;;;;;-145.69;100.00;73352.94;5073244;28;20332;-77
2021/11/09 05:13:01;;;;;;;22.67;7.43;;;;;;;-145.69;100.00;73360.91;5073135;28;20569;-77
2021/11/09 05:15:30;;;;;;;21.07;7.10;;;;;;;-145.69;100.00;73376.81;5072523;28;20199;-77
2021/11/09 05:17:58;;;;;;;18.27;6.97;;;;;;;-145.69;100.00;73358.91;5073057;28;20203;-77
2021/11/09 05:20:24;;;;;;;16.87;6.83;;;;;;;-145.69;100.00;73344.97;5073330;28;20272;-77
2021/11/09 05:22:51;;;;;;;26.63;6.80;;;;;;;-145.69;100.00;73335.03;5073037;28;20650;-77
2021/11/09 05:25:18;;;;;;;31.33;7.43;;;;;;;-145.69;100.00;73337.00;5072881;28;20252;-78
2021/11/09 05:27:46;;;;;;;15.77;6.83;;;;;;;-145.69;100.00;73335.03;5073084;28;20210;-78
2021/11/09 05:30:16;;;;;;;23.57;6.67;;;;;;;-145.69;100.00;73325.06;5072830;28;20194;-78
2021/11/09 05:32:47;;;;;;;20.30;6.50;;;;;;;-145.69;100.00;73352.94;5073347;28;20202;-78
2021/11/09 05:35:14;;;;;;;21.53;5.73;;;;;;;-145.69;100.00;73356.91;5073090;28;20199;-78
2021/11/09 05:37:44;;;;;;;20.37;5.80;;;;;;;-145.69;100.00;73380.81;5072839;28;20194;-78
2021/11/09 05:40:12;;;;;;;20.23;5.43;;;;;;;-145.69;100.00;73392.75;5072881;28;20657;-78
2021/11/09 05:42:41;;;;;;;14.20;5.47;;;;;;;-145.69;100.00;73394.75;5072983;28;20245;-77
2021/11/09 05:45:10;;;;;;;20.23;5.97;;;;;;;-145.69;100.00;73394.75;5073007;28;20336;-77
2021/11/09 05:47:42;;;;;;;23.33;6.10;;;;;;;-145.69;100.00;73386.78;5072878;28;20230;-77
2021/11/09 05:50:11;;;;;;;18.03;5.37;;;;;;;-145.69;100.00;73420.63;5072964;28;20252;-78
2021/11/09 05:52:39;;;;;;;27.07;6.50;;;;;;;-145.69;100.00;73384.78;5072800;28;20203;-78
2021/11/09 05:55:08;;;;;;;29.07;6.37;;;;;;;-145.69;100.00;73396.72;5072471;28;20712;-77
2021/11/09 05:57:34;;;;;;;31.97;7.43;;;;;;;-145.69;100.00;73390.75;5073052;28;20203;-78
2021/11/09 06:00:03;;;;;;;28.57;7.27;;;;;;;-145.69;100.00;73360.91;5072715;28;20203;-77
2021/11/09 06:02:32;;;;;;;39.20;7.60;;;;;;;-145.69;100.00;73364.88;5072635;28;20202;-77
2021/11/09 06:05:01;;;;;;;25.83;7.03;;;;;;;-145.69;100.00;73380.81;5072442;28;20222;-78
2021/11/09 06:07:29;;;;;;;22.40;6.33;;;;;;;-145.69;100.00;73412.66;5072370;28;20311;-77
2021/11/09 06:09:58;;;;;;;24.00;7.40;;;;;;;-145.69;100.00;73380.81;5072465;28;20203;-78
2021/11/09 06:12:27;;;;;;;19.33;6.90;;;;;;;-145.69;100.00;73394.75;5072733;28;20527;-77
2021/11/09 06:14:54;;;;;;;24.20;7.03;;;;;;;-145.69;100.00;73400.72;5072485;28;20211;-77
2021/11/09 06:17:20;;;;;;;21.97;7.70;;;;;;;-145.69;100.00;73432.56;5072419;28;20557;-78
2021/11/09 06:19:54;;;;;;;25.60;6.83;;;;;;;-145.69;100.00;73436.56;5074978;28;20543;-78
2021/11/09 06:22:22;;;;;;;30.63;7.17;;;;;;;-145.69;100.00;73452.47;5076197;28;20281;-77
2021/11/09 06:24:50;;;;;;;25.83;7.03;;;;;;;-145.69;100.00;73454.47;5076181;28;20227;-78
2021/11/09 06:27:18;;;;;;;25.93;6.87;;;;;;;-145.69;100.00;73482.34;5075887;28;20753;-78
2021/11/09 06:29:45;;;;;;;21.57;6.40;;;;;;;-145.69;100.00;73480.34;5075960;28;20653;-77
2021/11/09 06:32:12;;;;;;;23.47;7.30;;;;;;;-145.69;100.00;73496.28;5076154;28;20317;-78
2021/11/09 06:34:40;;;;;;;18.03;6.30;;;;;;;-145.69;100.00;73538.09;5075734;28;20207;-78
2021/11/09 06:37:09;;;;;;;34.47;6.97;;;;;;;-145.69;100.00;73524.16;5076134;28;20206;-78
2021/11/09 06:39:36;;;;;;;31.87;8.70;;;;;;;-145.69;100.00;73440.53;5075921;28;20209;-77
2021/11/09 06:42:07;;;;;;;30.67;8.80;;;;;;;-145.69;100.00;73420.63;5076102;28;20256;-78
2021/11/09 06:44:37;;;;;;;31.10;9.03;;;;;;;-145.69;100.00;73388.78;5075962;28;20229;-77
2021/11/09 06:47:04;;;;;;;30.50;9.17;;;;;;;-145.69;100.00;73352.94;5076231;28;20222;-77
2021/11/09 06:49:34;;;;;;;24.40;7.97;;;;;;;-145.69;100.00;73327.06;5076335;28;20199;-78
2021/11/09 06:52:01;;;;;;;26.87;8.43;;;;;;;-145.69;100.00;73323.06;5076358;28;20206;-77
2021/11/09 06:54:28;;;;;;;26.60;7.40;;;;;;;-145.69;100.00;73321.09;5075923;28;20238;-77
2021/11/09 06:56:55;;;;;;;30.23;7.90;;;;;;;-145.69;100.00;73333.03;5076088;28;20203;-77
2021/11/09 06:59:21;;;;;;;18.13;6.60;;;;;;;-145.69;100.00;73372.84;5075793;28;20657;-77
2021/11/09 07:01:50;;;;;;;16.87;6.77;;;;;;;-145.69;100.00;73412.66;5075892;28;20207;-77
2021/11/09 07:04:18;;;;;;;21.63;8.10;;;;;;;-145.69;100.00;73428.59;5076072;28;20225;-78
2021/11/09 07:06:45;;;;;;;21.97;7.27;;;;;;;-145.69;100.00;73444.50;5075854;28;20230;-78
2021/11/09 07:09:15;;;;;;;22.43;7.40;;;;;;;-145.69;100.00;73414.66;5075804;28;20234;-78
2021/11/09 07:14:22;;;;;;;24.37;7.90;;;;;;;-145.69;100.00;73420.63;5073540;28;20195;-77
2021/11/09 07:16:55;;;;;;;22.83;8.43;;;;;;;-145.69;100.00;73460.44;5076134;28;20198;-77
2021/11/09 07:19:24;;;;;;;31.50;9.40;;;;;;;-145.69;100.00;73416.66;5075599;28;20290;-77
2021/11/09 07:21:55;;;;;;;19.67;8.53;;;;;;;-145.69;100.00;73414.66;5075529;28;20241;-77
2021/11/09 07:24:23;;;;;;;37.43;9.10;;;;;;;-145.69;100.00;73400.72;5075335;28;20206;-78
2021/11/09 07:26:49;;;;;;;28.13;10.10;;;;;;;-145.69;100.00;73390.75;5075330;28;20297;-78
2021/11/09 07:29:16;;;;;;;31.37;10.57;;;;;;;-145.69;100.00;73356.91;5075562;28;20206;-77
2021/11/09 07:31:43;;;;;;;30.20;9.60;;;;;;;-145.69;100.00;73333.03;5074799;28;20226;-77
2021/11/09 07:34:11;;;;;;;25.73;10.20;;;;;;;-145.69;100.00;73317.09;5075254;28;20267;-78
2021/11/09 07:36:48;;;;;;;35.97;10.40;;;;;;;-145.69;100.00;73303.16;5075246;28;20203;-78
2021/11/09 07:39:19;;;;;;;34.07;10.17;;;;;;;-145.69;100.00;73287.25;5075085;28;20203;-77
2021/11/09 07:41:46;;;;;;;25.47;9.40;;;;;;;-145.69;100.00;73279.28;5075292;28;20244;-77
2021/11/09 07:44:13;;;;;;;20.13;9.27;;;;;;;-145.69;100.00;73277.28;5075214;28;20203;-77
2021/11/09 07:46:39;;;;;;;24.33;8.67;;;;;;;-145.69;100.00;73287.25;5074908;28;20250;-77
2021/11/09 07:49:10;;;;;;;24.43;8.67;;;;;;;-145.69;100.00;73273.31;5074987;28;20195;-77
2021/11/09 07:51:37;;;;;;;28.37;9.87;;;;;;;-145.69;100.00;73271.31;5074726;28;20205;-77
2021/11/09 07:54:05;;;;;;;25.83;8.20;;;;;;;-145.69;100.00;73269.31;5074741;28;20226;-77
2021/11/09 07:56:33;;;;;;;30.03;8.83;;;;;;;-145.69;100.00;73269.31;5074731;28;20211;-78
2021/11/09 07:59:21;;;;;;;17.17;7.43;;;;;;;-145.69;100.00;73277.28;5074638;28;20202;-78
2021/11/09 08:02:00;;;;;;;25.43;9.00;;;;;;;-145.69;100.00;73273.31;5074450;28;20671;-77
2021/11/09 08:04:31;;;;;;;23.63;9.10;;;;;;;-145.69;100.00;73265.34;5074684;28;20233;-78
2021/11/09 08:07:01;;;;;;;21.27;7.80;;;;;;;-145.69;100.00;73263.34;5074106;28;20202;-78
2021/11/09 08:09:29;;;;;;;28.03;8.20;;;;;;;-145.69;100.00;73263.34;5074531;28;20226;-78
2021/11/09 08:11:59;;;;;;;22.30;8.10;;;;;;;-145.69;100.00;73259.38;5074329;28;20202;-78
2021/11/09 08:14:27;;;;;;;25.97;8.23;;;;;;;-145.69;100.00;73249.41;5073951;28;20609;-78
2021/11/09 08:16:57;;;;;;;24.93;8.20;;;;;;;-145.69;100.00;73249.41;5074341;28;20206;-78
2021/11/09 08:19:24;;;;;;;25.30;7.60;;;;;;;-145.69;100.00;73237.47;5074341;28;20202;-78
2021/11/09 08:21:53;;;;;;;23.03;7.83;;;;;;;-145.69;100.00;73231.50;5074165;28;20210;-77
2021/11/09 08:24:20;;;;;;;29.47;8.50;;;;;;;-145.69;100.00;73233.50;5073867;28;20230;-78
2021/11/09 08:26:48;;;;;;;21.33;7.77;;;;;;;-145.69;100.00;73239.47;5073913;28;20585;-78
2021/11/09 08:29:14;;;;;;;31.57;9.17;;;;;;;-145.69;100.00;73233.50;5073771;28;20290;-77
2021/11/09 08:31:45;;;;;;;27.27;9.13;;;;;;;-145.69;100.00;73237.47;5074078;28;20336;-77
2021/11/09 08:34:14;;;;;;;21.10;7.77;;;;;;;-145.69;100.00;73223.53;5073834;28;20565;-77
2021/11/09 08:36:44;;;;;;;23.57;8.47;;;;;;;-145.69;100.00;73221.53;5074003;28;20302;-77
2021/11/09 08:39:18;;;;;;;18.70;7.87;;;;;;;-145.69;100.00;73215.56;5073728;28;20213;-77
2021/11/09 08:41:47;;;;;;;23.30;7.53;;;;;;;-145.69;100.00;73195.66;5073036;28;20204;-77
2021/11/09 08:44:17;;;;;;;21.63;7.70;;;;;;;-145.69;100.00;73193.66;5073585;28;20289;-76
2021/11/09 08:46:46;;;;;;;25.43;7.60;;;;;;;-145.69;100.00;73191.69;5073672;28;20230;-77
2021/11/09 08:49:15;;;;;;;17.93;6.73;;;;;;;-145.69;100.00;73171.78;5073534;28;20226;-77
2021/11/09 08:51:43;;;;;;;29.00;7.80;;;;;;;-145.69;100.00;73165.81;5073465;28;20249;-77
2021/11/09 08:54:19;;;;;;;20.03;6.90;;;;;;;-145.69;100.00;73153.84;5073319;28;20230;-78
2021/11/09 08:57:06;;;;;;;21.60;6.90;;;;;;;-145.69;100.00;73141.91;5073516;28;20194;-78
2021/11/09 09:05:12;;;;;;;23.17;6.30;;;;;;;-145.69;100.00;73124.00;4998340;28;20339;-78
2021/11/09 09:07:39;;;;;;;24.07;6.67;;;;;;;-145.69;100.00;73122.00;5073460;28;20198;-78
2021/11/09 09:10:10;;;;;;;20.37;6.63;;;;;;;-145.69;100.00;73116.03;5072783;28;20252;-77
2021/11/09 09:12:40;;;;;;;21.67;6.40;;;;;;;-145.69;100.00;73102.09;5073501;28;20202;-77
2021/11/09 09:15:11;;;;;;;19.80;6.50;;;;;;;-145.69;100.00;73100.09;5073230;28;20260;-77
2021/11/09 09:17:37;;;;;;;18.50;6.37;;;;;;;-145.69;100.00;73086.19;5073474;28;20538;-77
2021/11/09 09:20:09;;;;;;;17.77;6.07;;;;;;;-145.69;100.00;73094.13;5073263;28;20229;-77
2021/11/09 09:22:40;;;;;;;18.03;6.20;;;;;;;-145.69;100.00;73084.19;5073177;28;20209;-76
2021/11/09 09:28:09;;;;;;;24.17;6.17;;;;;;;-145.69;100.00;73070.25;5071157;28;20199;-77
2021/11/09 09:30:47;;;;;;;20.00;5.93;;;;;;;-145.69;100.00;73068.25;5073312;28;20237;-77
2021/11/09 09:57:58;;;;;;;12.70;4.67;;;;;;;-145.69;100.00;72986.63;5066217;28;20236;-80
2021/11/09 10:00:31;;;;;;;13.33;5.07;;;;;;;-145.69;100.00;72990.63;5076888;28;20202;-79
2021/11/09 10:02:59;;;;;;;13.37;4.60;;;;;;;-145.69;100.00;72978.69;5076614;28;20202;-80
2021/11/09 10:05:33;;;;;;;12.80;5.37;;;;;;;-145.69;100.00;72962.75;5076589;28;20230;-80
2021/11/09 10:07:59;;;;;;;10.07;4.27;;;;;;;-145.69;100.00;72962.75;5076842;28;20210;-80
2021/11/09 10:10:29;;;;;;;13.37;4.33;;;;;;;-145.69;100.00;72950.81;5076758;28;20539;-80
2021/11/09 10:13:01;;;;;;;13.13;4.70;;;;;;;-145.69;100.00;72930.91;5076649;28;20203;-80
2021/11/09 10:15:30;;;;;;;13.07;4.73;;;;;;;-145.69;99.09;72930.91;5076845;28;20654;-79
2021/11/09 10:18:02;;;;;;;13.07;4.73;;;;;;;-145.69;97.80;72920.94;5063779;28;20290;-79
2021/11/09 10:20:32;;;;;;;13.07;4.90;;;;;;;-145.69;99.38;72907.00;5056428;28;20203;-79
2021/11/09 10:23:01;;;;;;;15.33;5.07;;;;;;;-145.69;100.00;72875.16;5069543;28;20323;-78
2021/11/09 10:25:32;;;;;;;17.17;4.17;;;;;;;-145.69;95.21;72871.19;5075962;28;20226;-79
2021/11/09 10:28:04;;;;;;;9.80;4.07;;;;;;;-145.69;95.99;72861.22;5076250;28;20225;-79
2021/11/09 10:30:35;;;;;;;17.33;3.70;;;;;;;-145.69;94.04;72849.28;5075916;28;20203;-79
2021/11/09 10:33:01;;;;;;;12.03;4.10;;;;;;;-145.69;93.50;72839.34;5076375;28;20203;-78
2021/11/09 10:35:29;;;;;;;10.63;3.77;;;;;;;-145.69;92.57;72827.38;5076039;28;20297;-80
2021/11/09 10:38:01;;;;;;;11.57;4.40;;;;;;;-145.69;92.51;72809.47;5075454;28;20199;-80
2021/11/09 10:40:31;;;;;;;8.63;4.03;;;;;;;-145.69;92.71;72805.50;5076092;28;20249;-79
2021/11/09 10:43:00;;;;;;;13.63;4.23;;;;;;;-145.69;93.94;72803.50;5076126;28;20225;-80
2021/11/09 10:45:29;;;;;;;12.10;4.07;;;;;;;-145.69;94.81;72783.59;5075737;28;20237;-79
2021/11/09 10:48:00;;;;;;;11.27;3.87;;;;;;;-145.69;91.68;72787.56;5076085;28;20645;-80
2021/11/09 10:50:29;;;;;;;14.70;3.90;;;;;;;-145.69;93.66;72769.66;5075907;28;20198;-80
2021/11/09 10:53:05;;;;;;;9.90;3.37;;;;;;;-145.69;92.07;72767.69;5075573;28;20665;-79
2021/11/09 10:55:39;;;;;;;12.73;3.77;;;;;;;-145.69;91.25;72759.72;5075840;28;20209;-79
2021/11/09 10:58:25;;;;;;;12.40;3.83;;;;;;;-145.69;92.78;72739.81;5075642;28;20199;-79
2021/11/09 11:03:16;;;;;;;12.70;3.70;;;;;;;-145.69;90.01;72733.84;5075732;28;20210;-79
2021/11/09 11:04:03;;;;;;;7.17;2.83;;;;;;;-145.69;90.43;72711.94;5075647;28;20726;-80
2021/11/09 11:06:32;;;;;;;8.90;2.97;;;;;;;-145.69;90.04;72707.97;5074618;28;20254;-79
2021/11/09 11:09:01;;;;;;;12.53;3.73;;;;;;;-145.69;87.26;72684.06;5075531;28;20226;-80
2021/11/09 11:11:30;;;;;;;11.07;3.37;;;;;;;-145.69;86.06;72694.03;5075268;28;20203;-80
2021/11/09 11:14:08;;;;;;;14.53;3.20;;;;;;;-145.69;85.07;72688.06;5075272;28;20198;-80
2021/11/09 11:16:42;;;;;;;13.73;2.90;;;;;;;-145.69;79.38;72668.16;5075325;28;20206;-78
2021/11/09 11:19:09;;;;;;;6.97;2.90;;;;;;;-145.69;81.99;72690.03;5075394;28;20203;-78
2021/11/09 11:21:36;;;;;;;9.30;3.50;;;;;;;-145.69;82.06;72676.09;5074540;28;20207;-80
2021/11/09 11:24:04;;;;;;;14.53;4.50;;;;;;;-145.69;83.65;72664.16;5075093;28;20206;-80
2021/11/09 11:26:33;;;;;;;12.97;3.27;;;;;;;-145.69;81.88;72668.16;5075066;28;20689;-79
2021/11/09 11:29:00;;;;;;;14.67;3.90;;;;;;;-145.69;79.10;72664.16;5075120;28;20244;-79
2021/11/09 11:31:28;;;;;;;9.27;2.60;;;;;;;-145.69;77.81;72676.09;5075021;28;20198;-80
2021/11/09 11:33:56;;;;;;;9.73;2.90;;;;;;;-145.69;76.47;72664.16;5075006;28;20198;-79
2021/11/09 11:36:23;;;;;;;6.53;2.77;;;;;;;-145.69;77.35;72660.19;5074827;28;20202;-80
2021/11/09 11:38:53;;;;;;;8.47;2.67;;;;;;;-145.69;74.51;72648.25;5074809;28;20207;-79
2021/11/09 11:41:21;;;;;;;4.77;2.27;;;;;;;-145.69;75.60;72636.31;5074944;28;20199;-79
2021/11/09 11:43:52;;;;;;;9.37;2.40;;;;;;;-145.69;74.63;72630.31;5073183;28;20226;-80
2021/11/09 11:46:44;;;;;;;7.93;2.43;;;;;;;-145.69;72.93;72636.31;5074016;28;20226;-79
2021/11/09 11:49:14;;;;;;;10.27;2.67;;;;;;;-145.69;73.82;72624.34;5073739;28;20199;-79
2021/11/09 11:52:02;;;;;;;11.07;2.80;;;;;;;-145.69;77.62;72604.44;5074924;28;20198;-80
2021/11/09 11:54:42;;;;;;;7.10;2.20;;;;;;;-145.69;75.37;72608.44;5074710;28;20227;-79
2021/11/09 11:57:09;;;;;;;12.33;2.80;;;;;;;-145.69;76.29;72602.47;5074578;28;20209;-79
2021/11/09 11:59:42;;;;;;;6.17;2.50;;;;;;;-145.69;75.08;72592.50;5074272;28;20214;-79
2021/11/09 12:02:11;;;;;;;14.17;2.97;;;;;;;-145.69;75.45;72592.50;5078429;28;20286;-80
2021/11/09 12:04:53;;;;;;;4.87;2.10;;;;;;;-145.69;72.57;72578.56;5094603;28;20243;-79
2021/11/09 12:07:23;;;;;;;9.20;2.73;;;;;;;-145.69;69.07;72584.56;5094532;28;20228;-78
2021/11/09 12:09:52;;;;;;;7.03;1.93;;;;;;;-145.69;72.14;72580.56;5094361;28;20229;-78
2021/11/09 12:12:30;;;;;;;8.20;2.20;;;;;;;-145.69;67.42;72582.56;5094526;28;20198;-79
2021/11/09 12:14:58;;;;;;;9.30;2.20;;;;;;;-145.69;70.03;72588.53;5094202;28;20197;-79
2021/11/09 12:17:32;;;;;;;6.03;1.90;;;;;;;-145.69;67.32;72584.56;5093985;28;20662;-79
2021/11/09 12:20:05;;;;;;;4.07;2.00;;;;;;;-145.69;67.15;72564.66;5094230;28;20206;-79
2021/11/09 12:22:43;;;;;;;9.13;2.67;;;;;;;-145.69;67.97;72556.69;5094197;28;20198;-78
2021/11/09 12:25:12;;;;;;;8.93;2.70;;;;;;;-145.69;69.40;72558.66;5094443;28;20208;-79
2021/11/09 12:27:58;;;;;;;6.20;2.60;;;;;;;-145.69;71.58;72554.69;5094097;28;20242;-79
2021/11/09 12:30:41;;;;;;;6.10;2.30;;;;;;;-145.69;69.73;72558.66;5094039;28;20194;-78
2021/11/09 12:33:11;;;;;;;8.40;2.57;;;;;;;-145.69;69.29;72562.66;5094358;28;20209;-77
2021/11/09 12:35:40;;;;;;;7.93;2.47;;;;;;;-145.69;68.67;72562.66;5081986;28;20569;-78
2021/11/09 12:38:12;;;;;;;8.43;2.73;;;;;;;-145.69;68.54;72554.69;5073962;28;20210;-79
2021/11/09 12:40:40;;;;;;;5.97;2.30;;;;;;;-145.69;67.42;72544.75;5073610;28;20628;-78
2021/11/09 12:43:16;;;;;;;7.50;2.17;;;;;;;-145.69;68.22;72542.75;5073599;28;20645;-78
2021/11/09 12:45:45;;;;;;;7.43;2.57;;;;;;;-145.69;68.59;72532.78;5073433;28;20552;-78
2021/11/09 12:48:14;;;;;;;6.27;2.57;;;;;;;-145.69;64.94;72544.75;5073689;28;20199;-79
2021/11/09 12:50:49;;;;;;;5.83;2.80;;;;;;;-145.69;65.71;72552.69;5073383;28;20209;-79